Time;durP1;ratioP1;P1;durP2;ratioP2;P2;SDS_P1;SDS_P2;PMS_P1;PMS_P2;Temp;Humidity;BMP_temperature;BMP_pressure;BME280_temperature;BME280_humidity;BME280_pressure;Samples;Min_cycle;Max_cycle;Signal;HPM_P1;HPM_P2
2023/01/05 00:00:09;;;;;;;;;;;;;;;9.85;100.00;100487.28;350152;28;2283;-77
2023/01/05 00:00:19;;;;;;;;;;;;;;;9.85;100.00;100487.28;352100;28;784;-76
2023/01/05 00:00:31;;;;;;;;;;;;;;;9.86;99.98;100483.78;351845;28;1979;-76
2023/01/05 00:00:41;;;;;;;;;;;;;;;9.83;100.00;100478.63;350626;28;971;-76
2023/01/05 00:00:52;;;;;;;;;;;;;;;9.82;100.00;100482.13;347163;28;4077;-76
2023/01/05 00:01:05;;;;;;;;;;;;;;;9.80;100.00;100484.78;344653;28;5522;-75
2023/01/05 00:01:16;;;;;;;;;;;;;;;9.77;100.00;100479.63;348357;28;1229;-76
2023/01/05 00:01:27;;;;;;;;;;;;;;;9.76;100.00;100483.13;347670;28;2008;-77
2023/01/05 00:01:37;;;;;;;;;;;;;;;9.74;100.00;100478.84;346300;28;3748;-75
2023/01/05 00:01:47;;;;;;;;;;;;;;;9.70;100.00;100478.03;347599;28;3972;-75
2023/01/05 00:01:57;;;;;;;;;;;;;;;9.68;100.00;100480.69;341965;28;5721;-75
2023/01/05 00:02:08;;;;;;;;;;;;;;;9.68;100.00;100483.31;343980;28;3454;-76
2023/01/05 00:02:18;;;;;;;;;;;;;;;9.68;100.00;100474.59;346337;28;1747;-76
2023/01/05 00:02:28;;;;;;;;;;;;;;;9.68;100.00;100475.47;346247;28;3251;-76
2023/01/05 00:02:38;;;;;;;;;;;;;;;9.65;100.00;100479.91;346898;28;880;-75
2023/01/05 00:02:49;;;;;;;;;;;;;;;9.64;100.00;100478.19;347043;28;4256;-76
2023/01/05 00:02:59;;;;;;;;;;;;;;;9.63;100.00;100473.84;346607;28;5685;-77
2023/01/05 00:03:09;;;;;;;;;;;;;;;9.64;100.00;100476.44;346217;28;2116;-76
2023/01/05 00:03:19;;;;;;;;;;;;;;;9.64;100.00;100475.56;344741;28;1744;-76
2023/01/05 00:03:30;;;;;;;;;;;;;;;9.63;100.00;100479.94;346573;28;1358;-76
2023/01/05 00:03:40;;;;;;;;;;;;;;;9.64;100.00;100479.03;346527;28;809;-76
2023/01/05 00:03:50;;;;;;;;;;;;;;;9.61;100.00;100479.13;344510;28;3899;-76
2023/01/05 00:04:00;;;;;;;;;;;;;;;9.61;100.00;100478.25;342884;28;5743;-75
2023/01/05 00:04:11;;;;;;;;;;;;;;;9.61;100.00;100480.88;345767;28;1817;-77
2023/01/05 00:04:21;;;;;;;;;;;;;;;9.61;100.00;100476.50;347794;28;1618;-76
2023/01/05 00:04:31;;;;;;;;;;;;;;;9.60;100.00;100477.41;348481;28;3467;-75
2023/01/05 00:04:42;;;;;;;;;;;;;;;9.58;100.00;100473.97;349080;28;923;-75
2023/01/05 00:04:52;;;;;;;;;;;;;;;9.56;100.00;100475.75;343871;28;5515;-75
2023/01/05 00:05:02;;;;;;;;;;;;;;;9.57;100.00;100476.59;344001;28;3414;-75
2023/01/05 00:05:12;;;;;;;;;;;;;;;9.59;100.00;100474.81;346915;28;949;-77
2023/01/05 00:05:23;;;;;;;;;;;;;;;9.59;100.00;100472.22;347649;28;1675;-76
2023/01/05 00:05:33;;;;;;;;;;;;;;;9.59;100.00;100475.69;348246;28;3468;-76
2023/01/05 00:05:43;;;;;;;;;;;;;;;9.60;100.00;100477.41;349203;28;970;-76
2023/01/05 00:05:57;;;;;;;;;;;;;;;9.60;100.00;100482.63;345397;28;5689;-75
2023/01/05 00:06:11;;;;;;;;;;;;;;;9.57;100.00;100472.25;347553;28;3155;-75
2023/01/05 00:06:21;;;;;;;;;;;;;;;9.55;100.00;100479.25;346342;28;1958;-76
2023/01/05 00:06:32;;;;;;;;;;;;;;;9.53;100.00;100481.03;347511;28;3651;-76
2023/01/05 00:06:42;;;;;;;;;;;;;;;9.51;100.00;100475.03;347476;28;829;-76
2023/01/05 00:06:52;;;;;;;;;;;;;;;9.51;100.00;100482.88;342096;28;5172;-76
2023/01/05 00:07:02;;;;;;;;;;;;;;;9.50;100.00;100478.53;343156;28;3570;-76
2023/01/05 00:07:13;;;;;;;;;;;;;;;9.50;100.00;100475.06;344103;28;1227;-76
2023/01/05 00:07:23;;;;;;;;;;;;;;;9.51;100.00;100476.78;343440;28;2459;-76
2023/01/05 00:07:33;;;;;;;;;;;;;;;9.52;100.00;100479.34;343400;28;3652;-75
2023/01/05 00:07:43;;;;;;;;;;;;;;;9.54;100.00;100476.66;340170;29;3821;-76
2023/01/05 00:07:54;;;;;;;;;;;;;;;9.54;100.00;100477.53;338207;28;5546;-76
2023/01/05 00:08:04;;;;;;;;;;;;;;;9.53;100.00;100480.22;341447;28;3874;-76
2023/01/05 00:08:14;;;;;;;;;;;;;;;9.55;100.00;100478.41;340957;29;1348;-76
2023/01/05 00:08:24;;;;;;;;;;;;;;;9.55;100.00;100468.81;340652;28;3692;-75
2023/01/05 00:08:34;;;;;;;;;;;;;;;9.56;100.00;100478.34;341215;29;921;-77
2023/01/05 00:08:45;;;;;;;;;;;;;;;9.56;100.00;100473.13;341644;28;3746;-76
2023/01/05 00:08:55;;;;;;;;;;;;;;;9.57;100.00;100480.06;338474;28;5441;-75
2023/01/05 00:09:06;;;;;;;;;;;;;;;9.58;100.00;100479.19;340058;29;3767;-75
2023/01/05 00:09:16;;;;;;;;;;;;;;;9.58;100.00;100473.97;339188;29;1770;-76
2023/01/05 00:09:28;;;;;;;;;;;;;;;9.60;100.00;100480.00;336564;29;3689;-76
2023/01/05 00:09:38;;;;;;;;;;;;;;;9.60;100.00;100487.00;335876;29;888;-75
2023/01/05 00:09:48;;;;;;;;;;;;;;;9.60;100.00;100480.00;329679;29;4935;-75
2023/01/05 00:09:58;;;;;;;;;;;;;;;9.62;100.00;100479.97;329051;29;3458;-75
2023/01/05 00:22:29;;;;;;;;;;;;;;;9.62;100.00;100475.59;332032;29;1227;-75
2023/01/05 00:23:22;;;;;;;;;;;;;;;9.67;100.00;100478.97;2481877;27;20258;-75
2023/01/05 00:23:32;;;;;;;;;;;;;;;9.65;100.00;100474.69;354703;27;875;-76
2023/01/05 00:23:43;;;;;;;;;;;;;;;9.67;100.00;100478.13;353137;28;792;-75
2023/01/05 00:23:53;;;;;;;;;;;;;;;9.67;100.00;100478.13;354679;27;1013;-75
2023/01/05 00:24:04;;;;;;;;;;;;;;;9.66;100.00;100472.03;351660;28;1608;-75
2023/01/05 00:24:14;;;;;;;;;;;;;;;9.68;100.00;100474.59;350174;28;1602;-75
2023/01/05 00:24:24;;;;;;;;;;;;;;;9.67;100.00;100478.97;350307;28;1252;-76
2023/01/05 00:24:34;;;;;;;;;;;;;;;9.67;100.00;100470.28;347761;28;1321;-75
2023/01/05 00:24:45;;;;;;;;;;;;;;;9.67;100.00;100478.13;347563;28;1094;-75
2023/01/05 00:24:55;;;;;;;;;;;;;;;9.66;100.00;100466.81;347539;28;1338;-76
2023/01/05 00:25:09;;;;;;;;;;;;;;;9.68;100.00;100469.38;348924;28;1306;-76
2023/01/05 00:25:21;;;;;;;;;;;;;;;9.67;100.00;100473.75;348939;28;945;-76
2023/01/05 00:25:32;;;;;;;;;;;;;;;9.66;100.00;100474.66;350402;28;1006;-76
2023/01/05 00:25:43;;;;;;;;;;;;;;;9.66;100.00;100469.41;347373;28;993;-76
2023/01/05 00:25:53;;;;;;;;;;;;;;;9.68;100.00;100475.47;347485;28;1301;-76
2023/01/05 00:26:03;;;;;;;;;;;;;;;9.66;100.00;100473.78;347575;28;1199;-76
2023/01/05 00:26:13;;;;;;;;;;;;;;;9.66;100.00;100474.66;349008;28;1278;-76
2023/01/05 00:26:23;;;;;;;;;;;;;;;9.66;100.00;100471.19;351582;28;1268;-76
2023/01/05 00:26:34;;;;;;;;;;;;;;;9.66;100.00;100477.25;350457;28;883;-77
2023/01/05 00:26:44;;;;;;;;;;;;;;;9.67;100.00;100470.28;349347;28;849;-76
2023/01/05 00:26:54;;;;;;;;;;;;;;;9.66;100.00;100472.03;348933;28;1645;-76
2023/01/05 00:27:04;;;;;;;;;;;;;;;9.67;100.00;100478.13;346025;28;1524;-76
2023/01/05 00:27:15;;;;;;;;;;;;;;;9.68;100.00;100479.84;347340;28;1351;-76
2023/01/05 00:27:25;;;;;;;;;;;;;;;9.67;100.00;100472.88;346133;28;928;-76
2023/01/05 00:27:35;;;;;;;;;;;;;;;9.66;100.00;100472.03;350081;28;935;-76
2023/01/05 00:27:46;;;;;;;;;;;;;;;9.67;100.00;100472.88;346684;28;1312;-76
2023/01/05 00:27:57;;;;;;;;;;;;;;;9.68;100.00;100475.47;346209;28;919;-76
2023/01/05 00:28:08;;;;;;;;;;;;;;;9.67;100.00;100468.53;347545;28;2313;-76
2023/01/05 00:28:18;;;;;;;;;;;;;;;9.67;100.00;100471.13;346116;28;1323;-76
2023/01/05 00:28:28;;;;;;;;;;;;;;;9.67;100.00;100468.53;347607;28;884;-76
2023/01/05 00:28:38;;;;;;;;;;;;;;;9.68;100.00;100467.63;348976;28;851;-76
2023/01/05 00:28:48;;;;;;;;;;;;;;;9.68;100.00;100469.38;347479;28;1346;-76
2023/01/05 00:28:59;;;;;;;;;;;;;;;9.67;100.00;100471.13;347748;28;1290;-76
2023/01/05 00:29:09;;;;;;;;;;;;;;;9.67;100.00;100471.13;346270;28;947;-76
2023/01/05 00:29:19;;;;;;;;;;;;;;;9.67;100.00;100476.38;347127;28;1173;-76
2023/01/05 00:29:29;;;;;;;;;;;;;;;9.67;100.00;100467.66;347512;28;933;-75
2023/01/05 00:29:39;;;;;;;;;;;;;;;9.67;100.00;100473.75;347455;28;856;-76
2023/01/05 00:29:50;;;;;;;;;;;;;;;9.66;100.00;100472.03;350087;28;1166;-76
2023/01/05 00:30:00;;;;;;;;;;;;;;;9.67;100.00;100473.75;347669;28;1378;-76
2023/01/05 00:30:11;;;;;;;;;;;;;;;9.66;100.00;100472.03;348939;28;904;-76
2023/01/05 00:30:22;;;;;;;;;;;;;;;9.66;100.00;100465.94;348853;28;1199;-76
2023/01/05 00:30:33;;;;;;;;;;;;;;;9.66;100.00;100466.81;346207;28;3845;-76
2023/01/05 00:30:44;;;;;;;;;;;;;;;9.66;100.00;100472.03;346325;28;3397;-76
2023/01/05 00:30:54;;;;;;;;;;;;;;;9.65;100.00;100470.31;345068;28;844;-76
2023/01/05 00:31:04;;;;;;;;;;;;;;;9.65;100.00;100465.09;347412;28;1589;-76
2023/01/05 00:31:14;;;;;;;;;;;;;;;9.66;100.00;100466.81;347455;28;3711;-76
2023/01/05 00:31:25;;;;;;;;;;;;;;;9.64;100.00;100468.59;343277;28;3774;-76
2023/01/05 00:31:35;;;;;;;;;;;;;;;9.64;100.00;100467.72;339791;28;5047;-75
2023/01/05 00:31:45;;;;;;;;;;;;;;;9.64;100.00;100468.59;342606;28;3668;-76
2023/01/05 00:31:55;;;;;;;;;;;;;;;9.64;100.00;100465.13;343449;28;1771;-75
2023/01/05 00:32:05;;;;;;;;;;;;;;;9.64;100.00;100468.59;343416;28;3599;-76
2023/01/05 00:32:16;;;;;;;;;;;;;;;9.64;100.00;100465.13;343249;28;1981;-76
2023/01/05 00:32:26;;;;;;;;;;;;;;;9.64;100.00;100468.59;341158;28;4245;-75
2023/01/05 00:32:36;;;;;;;;;;;;;;;9.64;100.00;100463.38;340883;28;5293;-76
2023/01/05 00:32:46;;;;;;;;;;;;;;;9.65;100.00;100459.84;343996;28;1824;-76
2023/01/05 00:32:57;;;;;;;;;;;;;;;9.65;100.00;100467.69;340743;28;1838;-76
2023/01/05 00:33:10;;;;;;;;;;;;;;;9.65;100.00;100462.47;341606;28;3633;-76
2023/01/05 00:33:20;;;;;;;;;;;;;;;9.65;100.00;100461.63;337775;29;1585;-76
2023/01/05 00:33:30;;;;;;;;;;;;;;;9.65;100.00;100465.09;336302;29;5025;-75
2023/01/05 00:33:41;;;;;;;;;;;;;;;9.65;100.00;100462.47;335714;29;3523;-75
2023/01/05 00:33:51;;;;;;;;;;;;;;;9.65;100.00;100470.31;334665;29;865;-75
2023/01/05 00:34:01;;;;;;;;;;;;;;;9.64;100.00;100465.97;333441;29;2242;-75
2023/01/05 00:34:11;;;;;;;;;;;;;;;9.65;100.00;100461.63;334075;29;3467;-75
2023/01/05 00:34:22;;;;;;;;;;;;;;;9.65;100.00;100470.31;330884;29;863;-75
2023/01/05 00:34:32;;;;;;;;;;;;;;;9.66;100.00;100464.19;330063;29;4121;-76
2023/01/05 00:34:42;;;;;;;;;;;;;;;9.64;100.00;100463.38;331516;29;5476;-75
2023/01/05 00:34:54;;;;;;;;;;;;;;;9.64;100.00;100465.13;333462;29;3032;-75
2023/01/05 00:35:05;;;;;;;;;;;;;;;9.64;100.00;100468.59;336273;29;1860;-78
2023/01/05 00:35:15;;;;;;;;;;;;;;;9.64;100.00;100468.59;335813;29;3704;-76
2023/01/05 00:35:25;;;;;;;;;;;;;;;9.64;100.00;100462.50;332048;29;846;-75
2023/01/05 00:35:37;;;;;;;;;;;;;;;9.64;100.00;100468.59;325072;29;5600;-75
2023/01/05 00:35:47;;;;;;;;;;;;;;;9.64;100.00;100467.72;324455;30;3281;-75
2023/01/05 00:35:58;;;;;;;;;;;;;;;9.64;100.00;100468.59;325134;30;2926;-75
2023/01/05 00:36:08;;;;;;;;;;;;;;;9.62;100.00;100464.28;323043;30;3457;-75
2023/01/05 00:36:19;;;;;;;;;;;;;;;9.61;100.00;100468.66;322798;30;2678;-75
2023/01/05 00:36:30;;;;;;;;;;;;;;;9.61;100.00;100466.06;322042;30;5066;-75
2023/01/05 00:36:40;;;;;;;;;;;;;;;9.61;100.00;100468.66;324084;30;3462;-75
2023/01/05 00:36:50;;;;;;;;;;;;;;;9.60;100.00;100466.94;329199;30;1787;-75
2023/01/05 00:37:01;;;;;;;;;;;;;;;9.60;100.00;100466.94;324383;30;1793;-75
2023/01/05 00:37:11;;;;;;;;;;;;;;;9.59;100.00;100466.97;320915;30;3628;-76
2023/01/05 00:37:22;;;;;;;;;;;;;;;9.60;100.00;100469.56;323470;30;824;-76
2023/01/05 00:37:32;;;;;;;;;;;;;;;9.59;100.00;100460.00;317723;30;4051;-77
2023/01/05 00:37:44;;;;;;;;;;;;;;;9.61;100.00;100465.19;319827;30;3629;-75
2023/01/05 00:37:54;;;;;;;;;;;;;;;9.59;100.00;100462.59;322497;30;2135;-75
2023/01/05 00:38:04;;;;;;;;;;;;;;;9.59;100.00;100465.22;321816;30;3567;-75
2023/01/05 00:38:15;;;;;;;;;;;;;;;9.59;100.00;100465.22;321264;30;3252;-75
2023/01/05 00:38:25;;;;;;;;;;;;;;;9.59;100.00;100465.22;318838;31;1357;-75
2023/01/05 00:38:35;;;;;;;;;;;;;;;9.59;100.00;100465.22;315531;30;5475;-75
2023/01/05 00:38:45;;;;;;;;;;;;;;;9.59;100.00;100465.22;314099;31;6076;-75
2023/01/05 00:38:55;;;;;;;;;;;;;;;9.60;100.00;100460.84;317560;31;1960;-76
2023/01/05 00:39:06;;;;;;;;;;;;;;;9.58;100.00;100463.50;316939;31;3371;-75
2023/01/05 00:39:16;;;;;;;;;;;;;;;9.58;100.00;100463.50;315825;31;2165;-75
2023/01/05 00:39:26;;;;;;;;;;;;;;;9.58;100.00;100462.66;312029;31;3794;-75
2023/01/05 00:39:36;;;;;;;;;;;;;;;9.58;100.00;100458.28;309888;31;5584;-76
2023/01/05 00:39:47;;;;;;;;;;;;;;;9.58;100.00;100467.88;312432;31;3776;-76
2023/01/05 00:39:57;;;;;;;;;;;;;;;9.59;100.00;100464.38;311255;31;3867;-74
2023/01/05 00:40:08;;;;;;;;;;;;;;;9.58;100.00;100468.72;313150;31;3257;-76
2023/01/05 00:40:19;;;;;;;;;;;;;;;9.58;100.00;100468.72;312212;31;3959;-76
2023/01/05 00:40:29;;;;;;;;;;;;;;;9.59;100.00;100466.97;309422;31;5072;-76
2023/01/05 00:40:40;;;;;;;;;;;;;;;9.59;100.00;100465.22;307367;32;3375;-76
2023/01/05 00:40:50;;;;;;;;;;;;;;;9.59;100.00;100464.38;308877;31;4247;-76
2023/01/05 00:41:00;;;;;;;;;;;;;;;9.58;100.00;100458.28;310374;31;4239;-76
2023/01/05 00:41:10;;;;;;;;;;;;;;;9.59;100.00;100466.97;312403;31;3681;-76
2023/01/05 00:41:21;;;;;;;;;;;;;;;9.58;100.00;100458.28;308166;31;3544;-75
2023/01/05 00:41:31;;;;;;;;;;;;;;;9.58;100.00;100468.72;304641;32;5958;-76
2023/01/05 00:41:41;;;;;;;;;;;;;;;9.58;100.00;100468.72;303530;32;4336;-74
2023/01/05 00:41:51;;;;;;;;;;;;;;;9.59;100.00;100472.22;304288;32;1884;-75
2023/01/05 00:42:02;;;;;;;;;;;;;;;9.57;100.00;100461.78;302567;32;5091;-76
2023/01/05 00:42:12;;;;;;;;;;;;;;;9.56;100.00;100462.69;301940;32;5988;-75
2023/01/05 00:42:22;;;;;;;;;;;;;;;9.56;100.00;100469.66;305556;32;3711;-75
2023/01/05 00:42:32;;;;;;;;;;;;;;;9.55;100.00;100460.09;300809;32;5800;-74
2023/01/05 00:42:43;;;;;;;;;;;;;;;9.54;100.00;100461.84;301739;32;6368;-76
2023/01/05 00:42:53;;;;;;;;;;;;;;;9.54;100.00;100464.47;299104;33;2189;-76
2023/01/05 00:43:03;;;;;;;;;;;;;;;9.54;100.00;100469.69;295923;33;5669;-75
2023/01/05 00:43:13;;;;;;;;;;;;;;;9.55;100.00;100462.72;293886;33;5956;-75
2023/01/05 00:43:24;;;;;;;;;;;;;;;9.55;100.00;100463.56;295207;33;4080;-75
2023/01/05 00:43:34;;;;;;;;;;;;;;;9.54;100.00;100468.84;290023;33;5467;-75
2023/01/05 00:43:44;;;;;;;;;;;;;;;9.52;100.00;100466.28;290486;33;4453;-75
2023/01/05 00:43:56;;;;;;;;;;;;;;;9.53;100.00;100470.59;287399;34;2082;-76
2023/01/05 00:44:06;;;;;;;;;;;;;;;9.53;100.00;100467.97;287172;34;6386;-76
2023/01/05 00:44:16;;;;;;;;;;;;;;;9.53;100.00;100467.16;287280;33;6875;-76
2023/01/05 00:44:26;;;;;;;;;;;;;;;9.52;100.00;100463.69;286086;34;7560;-74
2023/01/05 00:44:37;;;;;;;;;;;;;;;9.51;100.00;100467.19;283540;34;5746;-76
2023/01/05 00:44:47;;;;;;;;;;;;;;;9.53;100.00;100469.75;283015;34;9955;-76
2023/01/05 00:44:57;;;;;;;;;;;;;;;9.53;100.00;100467.16;281520;34;8882;-75
2023/01/05 00:45:08;;;;;;;;;;;;;;;9.52;100.00;100471.50;282696;35;3757;-75
2023/01/05 00:45:20;;;;;;;;;;;;;;;9.53;100.00;100469.75;278893;35;8315;-75
2023/01/05 00:45:30;;;;;;;;;;;;;;;9.53;100.00;100470.59;274679;35;8680;-75
2023/01/05 00:45:41;;;;;;;;;;;;;;;9.52;100.00;100463.69;276470;35;3395;-76
2023/01/05 00:45:51;;;;;;;;;;;;;;;9.53;100.00;100465.38;279173;35;6794;-75
2023/01/05 00:47:50;;;;;;;;;;;;;;;9.54;100.00;100466.22;2495261;27;19922;-75
2023/01/05 00:48:01;;;;;;;;;;;;;;;9.52;100.00;100466.28;355094;27;1935;-76
2023/01/05 00:48:11;;;;;;;;;;;;;;;9.53;100.00;100467.16;352511;28;3448;-76
2023/01/05 00:48:21;;;;;;;;;;;;;;;9.54;100.00;100468.84;350615;28;1598;-76
2023/01/05 00:48:31;;;;;;;;;;;;;;;9.53;100.00;100460.13;349275;28;5714;-75
2023/01/05 00:48:41;;;;;;;;;;;;;;;9.53;100.00;100462.75;352339;28;3490;-75
2023/01/05 00:48:52;;;;;;;;;;;;;;;9.53;100.00;100462.75;353485;28;879;-75
2023/01/05 00:49:02;;;;;;;;;;;;;;;9.53;100.00;100465.38;351773;28;1736;-75
2023/01/05 00:49:12;;;;;;;;;;;;;;;9.53;100.00;100460.13;350635;28;3659;-76
2023/01/05 00:49:22;;;;;;;;;;;;;;;9.53;100.00;100460.13;348908;28;3821;-75
2023/01/05 00:49:33;;;;;;;;;;;;;;;9.53;100.00;100465.38;346664;28;5479;-76
2023/01/05 00:49:43;;;;;;;;;;;;;;;9.52;100.00;100468.03;348986;28;5947;-76
2023/01/05 00:49:53;;;;;;;;;;;;;;;9.51;100.00;100464.56;349169;28;1981;-75
2023/01/05 00:50:04;;;;;;;;;;;;;;;9.52;100.00;100462.81;351731;28;3374;-76
2023/01/05 00:50:14;;;;;;;;;;;;;;;9.52;100.00;100465.44;348999;28;1355;-77
2023/01/05 00:50:24;;;;;;;;;;;;;;;9.52;100.00;100463.69;350586;28;4143;-77
2023/01/05 00:50:35;;;;;;;;;;;;;;;9.52;100.00;100463.69;348157;28;5191;-76
2023/01/05 00:50:45;;;;;;;;;;;;;;;9.53;100.00;100462.75;350125;28;3407;-76
2023/01/05 00:50:55;;;;;;;;;;;;;;;9.52;100.00;100461.06;349197;28;2587;-75
2023/01/05 00:51:05;;;;;;;;;;;;;;;9.52;100.00;100474.13;350608;28;3548;-75
2023/01/05 00:51:16;;;;;;;;;;;;;;;9.52;100.00;100465.44;349619;28;1055;-75
2023/01/05 00:51:26;;;;;;;;;;;;;;;9.50;100.00;100462.84;348475;28;3840;-76
2023/01/05 00:51:36;;;;;;;;;;;;;;;9.51;100.00;100466.31;346110;28;7428;-74
2023/01/05 00:51:46;;;;;;;;;;;;;;;9.51;100.00;100464.56;351533;28;3638;-75
2023/01/05 00:51:56;;;;;;;;;;;;;;;9.50;100.00;100462.84;351965;28;851;-76
2023/01/05 00:52:07;;;;;;;;;;;;;;;9.51;100.00;100466.31;352005;28;3652;-76
2023/01/05 00:52:17;;;;;;;;;;;;;;;9.50;100.00;100464.59;352044;28;880;-76
2023/01/05 00:52:27;;;;;;;;;;;;;;;9.50;100.00;100457.63;349715;28;4089;-75
2023/01/05 00:52:37;;;;;;;;;;;;;;;9.50;100.00;100465.47;347036;28;5503;-75
2023/01/05 00:52:48;;;;;;;;;;;;;;;9.49;100.00;100461.13;348891;28;1694;-75
2023/01/05 00:52:58;;;;;;;;;;;;;;;9.50;100.00;100462.00;347670;28;1975;-75
2023/01/05 00:53:08;;;;;;;;;;;;;;;9.50;100.00;100460.25;349636;28;3665;-75
2023/01/05 00:53:19;;;;;;;;;;;;;;;9.49;100.00;100453.28;349151;28;1456;-75
2023/01/05 00:53:29;;;;;;;;;;;;;;;9.50;100.00;100464.59;347833;28;5158;-75
2023/01/05 00:53:39;;;;;;;;;;;;;;;9.51;100.00;100461.09;350830;28;3334;-75
2023/01/05 00:53:49;;;;;;;;;;;;;;;9.50;100.00;100459.38;350243;28;1845;-75
2023/01/05 00:53:59;;;;;;;;;;;;;;;9.49;100.00;100458.53;349887;28;1198;-75
2023/01/05 00:54:10;;;;;;;;;;;;;;;9.50;100.00;100464.59;347637;28;3777;-75
2023/01/05 00:54:20;;;;;;;;;;;;;;;9.49;100.00;100463.75;343471;28;3933;-75
2023/01/05 00:54:30;;;;;;;;;;;;;;;9.49;100.00;100458.53;339899;28;5656;-75
2023/01/05 00:54:40;;;;;;;;;;;;;;;9.49;100.00;100458.53;341803;28;4371;-75
2023/01/05 00:54:51;;;;;;;;;;;;;;;9.50;100.00;100460.25;342803;28;5435;-76
2023/01/05 00:55:01;;;;;;;;;;;;;;;9.51;100.00;100459.34;344989;28;833;-74
2023/01/05 00:55:11;;;;;;;;;;;;;;;9.51;100.00;100464.56;342906;28;5374;-75
2023/01/05 00:55:21;;;;;;;;;;;;;;;9.51;100.00;100461.09;347417;28;3711;-76
2023/01/05 00:55:32;;;;;;;;;;;;;;;9.52;100.00;100460.19;344833;28;4094;-74
2023/01/05 00:55:42;;;;;;;;;;;;;;;9.51;100.00;100464.56;347235;28;5712;-74
2023/01/05 00:55:56;;;;;;;;;;;;;;;9.51;100.00;100461.09;340860;28;5648;-74
2023/01/05 00:56:06;;;;;;;;;;;;;;;9.51;100.00;100461.09;340858;29;1352;-74
2023/01/05 00:56:16;;;;;;;;;;;;;;;9.49;100.00;100455.91;338495;28;4201;-74
2023/01/05 00:56:27;;;;;;;;;;;;;;;9.50;100.00;100459.38;341328;28;1575;-74
2023/01/05 00:56:38;;;;;;;;;;;;;;;9.49;100.00;100458.53;336154;29;4197;-75
2023/01/05 00:56:48;;;;;;;;;;;;;;;9.50;100.00;100459.38;339028;29;4929;-75
2023/01/05 00:56:59;;;;;;;;;;;;;;;9.50;100.00;100460.25;337365;28;5812;-74
2023/01/05 00:57:10;;;;;;;;;;;;;;;9.50;100.00;100464.59;339267;28;3635;-75
2023/01/05 00:57:20;;;;;;;;;;;;;;;9.49;100.00;100458.53;338563;28;3352;-78
2023/01/05 00:57:30;;;;;;;;;;;;;;;9.50;100.00;100460.25;337884;29;4211;-76
2023/01/05 00:57:40;;;;;;;;;;;;;;;9.49;100.00;100461.13;334914;29;5519;-76
2023/01/05 00:57:51;;;;;;;;;;;;;;;9.48;100.00;100456.81;332769;29;4130;-75
2023/01/05 00:58:01;;;;;;;;;;;;;;;9.49;100.00;100457.66;330565;29;7398;-75
2023/01/05 00:58:11;;;;;;;;;;;;;;;9.47;100.00;100455.09;328892;29;4055;-75
2023/01/05 00:58:22;;;;;;;;;;;;;;;9.48;100.00;100455.94;325178;30;5713;-74
2023/01/05 00:58:32;;;;;;;;;;;;;;;9.46;100.00;100458.59;330087;29;1996;-76
2023/01/05 00:58:42;;;;;;;;;;;;;;;9.46;100.00;100458.59;326976;29;5042;-75
2023/01/05 00:58:54;;;;;;;;;;;;;;;9.46;100.00;100458.59;329925;30;860;-76
2023/01/05 00:59:04;;;;;;;;;;;;;;;9.45;100.00;100462.09;322928;30;5626;-75
2023/01/05 00:59:15;;;;;;;;;;;;;;;9.44;100.00;100454.28;322168;30;3822;-75
2023/01/05 00:59:25;;;;;;;;;;;;;;;9.44;100.00;100457.75;319860;30;4503;-75
2023/01/05 00:59:35;;;;;;;;;;;;;;;9.44;100.00;100459.50;321837;30;3953;-74
2023/01/05 00:59:45;;;;;;;;;;;;;;;9.44;100.00;100447.31;319178;30;4533;-75
2023/01/05 00:59:56;;;;;;;;;;;;;;;9.44;100.00;100454.28;320506;30;4024;-75
2023/01/05 01:00:07;;;;;;;;;;;;;;;9.44;100.00;100457.75;320243;30;4756;-75
2023/01/05 01:00:18;;;;;;;;;;;;;;;9.44;100.00;100454.28;318306;30;4024;-76
2023/01/05 01:00:28;;;;;;;;;;;;;;;9.44;100.00;100455.16;316137;31;3231;-75
2023/01/05 01:00:38;;;;;;;;;;;;;;;9.44;100.00;100457.75;316181;31;4260;-75
2023/01/05 01:00:49;;;;;;;;;;;;;;;9.44;100.00;100460.38;315656;31;3500;-75
2023/01/05 01:00:59;;;;;;;;;;;;;;;9.44;100.00;100460.38;317465;30;3999;-75
2023/01/05 01:01:10;;;;;;;;;;;;;;;9.44;100.00;100459.50;314686;31;5572;-75
2023/01/05 01:01:20;;;;;;;;;;;;;;;9.45;100.00;100462.09;314557;31;4247;-75
2023/01/05 01:01:30;;;;;;;;;;;;;;;9.44;100.00;100460.38;315826;31;3617;-75
2023/01/05 01:01:40;;;;;;;;;;;;;;;9.46;100.00;100458.59;312570;31;3911;-76
2023/01/05 01:01:51;;;;;;;;;;;;;;;9.46;100.00;100460.34;310218;31;5227;-76
2023/01/05 01:02:01;;;;;;;;;;;;;;;9.46;100.00;100457.72;311862;31;4220;-76
2023/01/05 01:02:11;;;;;;;;;;;;;;;9.46;100.00;100462.94;309362;31;4738;-76
2023/01/05 01:02:22;;;;;;;;;;;;;;;9.47;100.00;100455.09;307375;31;4295;-76
2023/01/05 01:02:32;;;;;;;;;;;;;;;9.46;100.00;100463.81;309113;31;5798;-76
2023/01/05 01:02:42;;;;;;;;;;;;;;;9.46;100.00;100458.59;309284;31;4982;-76
2023/01/05 01:02:52;;;;;;;;;;;;;;;9.47;100.00;100454.22;311584;31;3477;-76
2023/01/05 01:03:03;;;;;;;;;;;;;;;9.47;100.00;100465.53;308459;31;3962;-76
2023/01/05 01:03:13;;;;;;;;;;;;;;;9.47;100.00;100459.44;306072;31;3540;-75
2023/01/05 01:03:23;;;;;;;;;;;;;;;9.47;100.00;100462.91;308925;31;3855;-75
2023/01/05 01:03:33;;;;;;;;;;;;;;;9.46;100.00;100463.81;303573;32;5518;-76
2023/01/05 01:03:44;;;;;;;;;;;;;;;9.46;100.00;100458.59;304292;32;4051;-74
2023/01/05 01:03:54;;;;;;;;;;;;;;;9.45;100.00;100462.09;301906;32;3393;-75
2023/01/05 01:04:04;;;;;;;;;;;;;;;9.45;100.00;100461.22;297830;32;4068;-77
2023/01/05 01:04:15;;;;;;;;;;;;;;;9.45;100.00;100461.22;299585;32;3240;-76
2023/01/05 01:04:25;;;;;;;;;;;;;;;9.44;100.00;100462.97;300232;32;3991;-76
2023/01/05 01:04:35;;;;;;;;;;;;;;;9.44;100.00;100460.38;301954;32;5753;-75
2023/01/05 01:04:45;;;;;;;;;;;;;;;9.46;100.00;100460.34;298113;32;4548;-75
2023/01/05 01:04:56;;;;;;;;;;;;;;;9.45;100.00;100456.88;295011;33;5721;-74
2023/01/05 01:05:07;;;;;;;;;;;;;;;9.46;100.00;100457.72;297619;33;4334;-74
2023/01/05 01:05:18;;;;;;;;;;;;;;;9.44;100.00;100457.75;297049;32;4224;-74
2023/01/05 01:05:28;;;;;;;;;;;;;;;9.44;100.00;100457.75;294045;33;4810;-74
2023/01/05 01:05:38;;;;;;;;;;;;;;;9.45;100.00;100451.66;294011;33;5032;-75
2023/01/05 01:05:57;;;;;;;;;;;;;;;9.44;100.00;100460.38;289058;33;4012;-75
2023/01/05 01:06:07;;;;;;;;;;;;;;;9.44;100.00;100460.38;291904;33;3622;-75
2023/01/05 01:06:18;;;;;;;;;;;;;;;9.44;100.00;100455.16;288104;33;6001;-75
2023/01/05 01:06:28;;;;;;;;;;;;;;;9.44;100.00;100455.16;289255;33;5195;-75
2023/01/05 01:06:38;;;;;;;;;;;;;;;9.45;100.00;100453.41;286298;34;4082;-75
2023/01/05 01:06:48;;;;;;;;;;;;;;;9.45;100.00;100461.22;286717;34;5738;-75
2023/01/05 01:06:59;;;;;;;;;;;;;;;9.45;100.00;100456.00;285743;33;6330;-76
2023/01/05 01:07:09;;;;;;;;;;;;;;;9.46;100.00;100458.59;289108;33;7372;-76
2023/01/05 01:07:19;;;;;;;;;;;;;;;9.47;100.00;100460.31;286418;34;4919;-74
2023/01/05 01:07:29;;;;;;;;;;;;;;;9.48;100.00;100455.94;284893;34;6342;-74
2023/01/05 01:07:40;;;;;;;;;;;;;;;9.48;100.00;100455.94;279421;34;6792;-75
2023/01/05 01:07:50;;;;;;;;;;;;;;;9.48;100.00;100451.56;281249;35;919;-75
2023/01/05 01:08:01;;;;;;;;;;;;;;;9.48;100.00;100456.81;278934;34;7449;-75
2023/01/05 01:08:11;;;;;;;;;;;;;;;9.47;100.00;100455.09;279189;34;5412;-75
2023/01/05 01:08:21;;;;;;;;;;;;;;;9.48;100.00;100453.31;278419;35;4294;-76
2023/01/05 01:08:31;;;;;;;;;;;;;;;9.47;100.00;100455.09;280243;35;6078;-76
2023/01/05 01:08:42;;;;;;;;;;;;;;;9.47;100.00;100457.69;278600;34;7523;-75
2023/01/05 01:08:52;;;;;;;;;;;;;;;9.48;100.00;100455.94;280743;35;6169;-75
2023/01/05 01:10:30;;;;;;;;;;;;;;;9.50;100.00;100454.16;2482488;27;20314;-76
2023/01/05 01:10:40;;;;;;;;;;;;;;;9.49;100.00;100453.28;354758;27;912;-75
2023/01/05 01:10:51;;;;;;;;;;;;;;;9.51;100.00;100455.88;349150;28;5225;-76
2023/01/05 01:11:04;;;;;;;;;;;;;;;9.50;100.00;100452.41;349044;28;3491;-76
2023/01/05 01:11:15;;;;;;;;;;;;;;;9.49;100.00;100453.28;344594;28;4794;-76
2023/01/05 01:11:25;;;;;;;;;;;;;;;9.49;100.00;100461.13;347110;28;3842;-75
2023/01/05 01:11:36;;;;;;;;;;;;;;;9.50;100.00;100454.16;346383;28;4448;-75